createdAt,value
2023-04-07T00:01:50.724Z,0.04
2023-04-07T00:04:25.537Z,0.05
2023-04-07T00:16:55.531Z,0.04
2023-04-07T00:19:08.380Z,0.05
2023-04-07T00:23:54.231Z,0.04
2023-04-07T00:26:26.710Z,0.05
2023-04-07T01:05:31.717Z,0.06
2023-04-07T01:08:15.127Z,0.05
2023-04-07T01:33:00.246Z,0.04
2023-04-07T01:35:13.779Z,0.05
2023-04-07T01:42:34.922Z,0.04
2023-04-07T01:52:34.503Z,0.05
2023-04-07T01:59:10.371Z,0.04
2023-04-07T02:08:55.089Z,0.05
2023-04-07T02:23:50.198Z,0.04
2023-04-07T02:27:59.014Z,0.05
2023-04-07T02:33:15.665Z,0.04
2023-04-07T02:37:36.550Z,0.05
2023-04-07T02:47:38.576Z,0.04
2023-04-07T02:50:36.276Z,0.05
2023-04-07T02:55:49.626Z,0.04
2023-04-07T03:02:56.253Z,0.05
2023-04-07T03:07:53.719Z,0.04
2023-04-07T03:12:57.294Z,0.05
2023-04-07T03:20:20.997Z,0.04
2023-04-07T03:49:37.948Z,0.05
2023-04-07T03:51:56.155Z,0.04
2023-04-07T03:54:00.966Z,0.05
2023-04-07T04:04:06.583Z,0.06
2023-04-07T04:08:47.033Z,0.07
2023-04-07T04:13:34.153Z,0.08
2023-04-07T04:15:36.602Z,0.09
2023-04-07T04:18:27.244Z,0.14
2023-04-07T04:21:04.054Z,0.23
2023-04-07T04:23:26.479Z,0.34
2023-04-07T04:25:35.327Z,0.45
2023-04-07T04:28:31.933Z,0.68
2023-04-07T04:31:14.645Z,0.98
2023-04-07T04:33:43.299Z,1.49
2023-04-07T04:35:58.110Z,2.44
2023-04-07T04:37:58.883Z,3.44
2023-04-07T04:40:47.219Z,5.13
2023-04-07T04:43:22.121Z,7.74
2023-04-07T04:45:43.026Z,10.5
2023-04-07T04:47:49.896Z,13.07
2023-04-07T04:50:44.913Z,15.37
2023-04-07T04:53:25.955Z,21.32
2023-04-07T04:55:52.940Z,26.66
2023-04-07T04:58:05.770Z,28.6
2023-04-07T05:00:04.834Z,35.28
2023-04-07T05:02:52.050Z,42.58
2023-04-07T05:05:25.016Z,59.64
2023-04-07T05:07:44.252Z,71.76
2023-04-07T05:09:49.430Z,82.24
2023-04-07T05:12:42.562Z,90.76
2023-04-07T05:15:21.864Z,97.56
2023-04-07T05:17:47.149Z,93.48
2023-04-07T05:19:58.356Z,110.48
2023-04-07T05:21:55.781Z,109.68
2023-04-07T05:24:41.157Z,118.88
2023-04-07T05:27:12.503Z,134.52
2023-04-07T05:29:29.748Z,116.84
2023-04-07T05:31:32.808Z,133.28
2023-04-07T05:34:25.178Z,168.5
2023-04-07T05:37:01.620Z,198
2023-04-07T05:39:25.083Z,202
2023-04-07T05:41:34.540Z,214.5
2023-04-07T05:44:32.015Z,200
2023-04-07T05:47:15.655Z,238.3
2023-04-07T05:49:45.319Z,228.8
2023-04-07T05:52:00.881Z,237.2
2023-04-07T05:54:02.661Z,264.5
2023-04-07T05:56:52.415Z,266.9
2023-04-07T05:59:28.247Z,243.5
2023-04-07T06:01:49.811Z,227.9
2023-04-07T06:03:57.650Z,226.4
2023-04-07T06:06:53.333Z,187.9
2023-04-07T06:09:35.101Z,206.8
2023-04-07T06:12:03.021Z,221.4
2023-04-07T06:14:16.877Z,227.6
2023-04-07T06:16:18.176Z,255.3
2023-04-07T06:19:04.687Z,262
2023-04-07T06:21:38.681Z,304.4
2023-04-07T06:23:58.190Z,314.2
2023-04-07T06:28:58.319Z,346.8
2023-04-07T06:31:38.310Z,386.4
2023-04-07T06:34:04.285Z,360.8
2023-04-07T06:36:16.386Z,394.2
2023-04-07T06:38:14.465Z,408.9
2023-04-07T06:41:00.599Z,391.5
2023-04-07T06:43:32.845Z,432.9
2023-04-07T06:45:51.148Z,398.7
2023-04-07T06:47:55.204Z,413.6
2023-04-07T06:50:47.521Z,386.2
2023-04-07T06:53:25.855Z,427.8
2023-04-07T06:55:50.020Z,419.5
2023-04-07T06:58:00.387Z,553.9
2023-04-07T06:59:56.747Z,550.2
2023-04-07T07:02:41.284Z,631.5
2023-04-07T07:05:11.277Z,741.1
2023-04-07T07:07:27.768Z,872
2023-04-07T07:09:30.201Z,955.2
2023-04-07T07:12:20.695Z,893.1
2023-04-07T07:14:56.900Z,865.6
2023-04-07T07:17:19.501Z,767.6
2023-04-07T07:19:27.980Z,719.3
2023-04-07T07:22:24.605Z,766.7
2023-04-07T07:25:07.272Z,864.6
2023-04-07T07:27:35.858Z,851.8
2023-04-07T07:29:50.443Z,797.7
2023-04-07T07:31:51.115Z,814.7
2023-04-07T07:34:39.887Z,987.2
2023-04-07T07:37:14.530Z,1146.2
2023-04-07T07:39:35.384Z,1409.9
2023-04-07T07:41:42.132Z,1425.9
2023-04-07T07:44:36.930Z,1600.6
2023-04-07T07:47:17.915Z,1570.5
2023-04-07T07:49:44.746Z,1541.1
2023-04-07T07:51:57.627Z,1297.6
2023-04-07T07:53:56.696Z,1211.5
2023-04-07T07:56:43.789Z,1186.8
2023-04-07T07:59:17.875Z,1440
2023-04-07T08:01:35.737Z,1666
2023-04-07T08:03:40.955Z,1713
2023-04-07T08:06:33.492Z,1351.6
2023-04-07T08:09:12.546Z,1646
2023-04-07T08:11:37.748Z,1616.6
2023-04-07T08:13:49.096Z,1623
2023-04-07T08:15:45.999Z,1420.8
2023-04-07T08:18:31.254Z,1326.7
2023-04-07T08:21:02.530Z,1311.3
2023-04-07T08:23:19.726Z,1272
2023-04-07T08:25:23.127Z,1256.6
2023-04-07T08:28:14.410Z,1289.6
2023-04-07T08:30:51.735Z,1300.1
2023-04-07T08:33:15.041Z,1502
2023-04-07T08:35:24.645Z,1331.2
2023-04-07T08:38:22.095Z,1230
2023-04-07T08:41:05.502Z,1281.6
2023-04-07T08:43:34.933Z,1591
2023-04-07T08:45:51.175Z,1736
2023-04-07T08:47:51.854Z,1601.2
2023-04-07T08:50:41.419Z,1598.7
2023-04-07T08:53:17.044Z,1473.9
2023-04-07T08:55:38.642Z,1432.9
2023-04-07T08:57:46.005Z,1644
2023-04-07T09:00:41.853Z,1554.5
2023-04-07T09:03:23.619Z,1417.6
2023-04-07T09:05:51.216Z,1376.6
2023-04-07T09:08:05.011Z,1347.2
2023-04-07T09:10:04.732Z,1379.2
2023-04-07T09:12:52.437Z,1507.8
2023-04-07T09:15:26.355Z,1815
2023-04-07T09:17:46.194Z,1864
2023-04-07T09:19:51.944Z,1783
2023-04-07T09:22:45.910Z,1539.2
2023-04-07T09:25:25.837Z,1469.4
2023-04-07T09:27:51.756Z,1400.3
2023-04-07T09:30:03.581Z,1402.2
2023-04-07T09:32:01.518Z,1464.3
2023-04-07T09:34:47.647Z,1570.5
2023-04-07T09:37:19.686Z,1543
2023-04-07T09:39:38.025Z,1449.6
2023-04-07T09:41:42.312Z,1418.8
2023-04-07T09:44:34.505Z,1520.6
2023-04-07T09:47:13.006Z,1749
2023-04-07T09:49:36.971Z,1642
2023-04-07T09:51:47.196Z,1546.8
2023-04-07T09:53:43.647Z,1592.9
2023-04-07T09:56:28.035Z,1392.6
2023-04-07T09:58:58.355Z,1333.1
2023-04-07T10:01:14.988Z,1390
2023-04-07T10:03:17.102Z,1456
2023-04-07T10:06:07.591Z,1401.6
2023-04-07T10:08:44.012Z,1301.1
2023-04-07T10:11:06.612Z,1328.6
2023-04-07T10:13:15.178Z,1400.3
2023-04-07T10:16:11.855Z,1606.4
2023-04-07T10:18:54.520Z,1665
2023-04-07T10:21:23.135Z,1776
2023-04-07T10:23:37.681Z,1850
2023-04-07T10:25:38.398Z,1683
2023-04-07T10:28:27.200Z,1614.7
2023-04-07T10:31:01.986Z,1705
2023-04-07T10:33:22.705Z,1657
2023-04-07T10:35:29.959Z,1690
2023-04-07T10:38:24.771Z,1543.6
2023-04-07T10:41:05.207Z,1266.8
2023-04-07T10:43:32.285Z,1155.5
2023-04-07T10:45:45.347Z,1150
2023-04-07T10:47:44.320Z,1205.4
2023-04-07T10:50:31.563Z,1251.5
2023-04-07T10:53:04.668Z,1305.9
2023-04-07T10:55:23.716Z,1231.3
2023-04-07T10:57:29.008Z,1018.5
2023-04-07T11:00:22.302Z,1146.5
2023-04-07T11:03:01.675Z,960.9
2023-04-07T11:05:26.647Z,906.5
2023-04-07T11:07:38.070Z,968
2023-04-07T11:09:35.378Z,1265.6
2023-04-07T11:12:20.672Z,1161.9
2023-04-07T11:14:52.055Z,1186.5
2023-04-07T11:17:09.404Z,1118
2023-04-07T11:19:12.620Z,1017.2
2023-04-07T11:22:04.218Z,1058.8
2023-04-07T11:24:41.797Z,1290.5
2023-04-07T11:27:05.290Z,1461.7
2023-04-07T11:29:15.015Z,1335
2023-04-07T11:32:12.250Z,1306.5
2023-04-07T11:34:55.813Z,1556.4
2023-04-07T11:37:25.246Z,1228.1
2023-04-07T11:39:40.866Z,1272.3
2023-04-07T11:41:42.466Z,1674
2023-04-07T11:44:32.267Z,2730
2023-04-07T11:47:07.946Z,2602
2023-04-07T11:49:29.585Z,2076
2023-04-07T11:51:37.288Z,1962
2023-04-07T11:54:33.093Z,1671
2023-04-07T11:57:14.900Z,1849
2023-04-07T11:59:42.654Z,1694
2023-04-07T12:01:57.911Z,1390
2023-04-07T12:03:56.269Z,1153.2
2023-04-07T12:06:43.918Z,1087.6
2023-04-07T12:09:18.080Z,1411.8
2023-04-07T12:11:37.637Z,1566.7
2023-04-07T12:13:43.536Z,2040
2023-04-07T12:16:37.375Z,2247
2023-04-07T12:19:17.448Z,1808
2023-04-07T12:21:43.438Z,1403.5
2023-04-07T12:23:54.900Z,1443.2
2023-04-07T12:25:52.973Z,2088
2023-04-07T12:28:39.092Z,2054
2023-04-07T12:30:52.176Z,1795
2023-04-07T12:32:51.266Z,1674
2023-04-07T12:35:38.357Z,1696
2023-04-07T12:38:11.581Z,1868
2023-04-07T12:40:30.735Z,1939
2023-04-07T12:42:35.830Z,2499
2023-04-07T12:45:29.212Z,3776
2023-04-07T12:48:08.636Z,3697
2023-04-07T12:50:33.813Z,3343
2023-04-07T12:52:45.345Z,3276
2023-04-07T12:54:42.808Z,3562
2023-04-07T12:57:28.196Z,4994
2023-04-07T12:59:59.543Z,5117
2023-04-07T13:02:17.114Z,5278
2023-04-07T13:04:20.477Z,4904
2023-04-07T13:07:11.936Z,5424
2023-04-07T13:09:49.635Z,4542
2023-04-07T13:12:13.608Z,4023
2023-04-07T13:14:22.463Z,3298
2023-04-07T13:17:20.231Z,2653
2023-04-07T13:20:03.996Z,1735
2023-04-07T13:22:35.678Z,1186.8
2023-04-07T13:24:49.273Z,1331.8
2023-04-07T13:26:51.191Z,2039
2023-04-07T13:29:41.023Z,2826
2023-04-07T13:32:16.809Z,3802
2023-04-07T13:34:38.732Z,4728
2023-04-07T13:36:46.618Z,5098
2023-04-07T13:39:42.548Z,5550
2023-04-07T13:42:24.573Z,4865
2023-04-07T13:44:52.505Z,4883
2023-04-07T13:47:06.510Z,5146
2023-04-07T13:49:06.594Z,5445
2023-04-07T13:51:54.819Z,6246
2023-04-07T13:54:28.891Z,5834
2023-04-07T13:56:48.972Z,3765
2023-04-07T13:58:55.104Z,3078
2023-04-07T14:01:49.269Z,1921
2023-04-07T14:04:29.265Z,863.6
2023-04-07T14:06:55.201Z,695
2023-04-07T14:09:07.429Z,861.4
2023-04-07T14:11:05.565Z,1251.5
2023-04-07T14:13:51.947Z,1934
2023-04-07T14:16:24.256Z,2185
2023-04-07T14:18:42.527Z,2525
2023-04-07T14:20:46.966Z,2741
2023-04-07T14:23:39.545Z,2700
2023-04-07T14:26:17.995Z,3658
2023-04-07T14:28:42.373Z,4362
2023-04-07T14:30:52.984Z,3392
2023-04-07T14:32:49.569Z,3362
2023-04-07T14:35:33.978Z,3080
2023-04-07T14:38:04.737Z,2869
2023-04-07T14:40:21.630Z,2455
2023-04-07T14:42:23.742Z,2540
2023-04-07T14:45:14.503Z,2433
2023-04-07T14:47:51.262Z,2055
2023-04-07T14:50:13.902Z,1966
2023-04-07T14:52:22.757Z,1793
2023-04-07T14:55:19.591Z,2172
2023-04-07T14:58:01.929Z,2673
2023-04-07T15:00:30.650Z,2578
2023-04-07T15:02:45.732Z,2510
2023-04-07T15:04:46.430Z,2473
2023-04-07T15:07:35.192Z,2276
2023-04-07T15:10:10.249Z,2330
2023-04-07T15:12:31.141Z,2088
2023-04-07T15:14:38.062Z,1733
2023-04-07T15:17:43.675Z,1670
2023-04-07T15:20:14.179Z,1742
2023-04-07T15:22:41.111Z,1923
2023-04-07T15:24:53.943Z,1916
2023-04-07T15:26:52.967Z,1934
2023-04-07T15:29:39.986Z,1981
2023-04-07T15:32:13.179Z,2416
2023-04-07T15:34:32.452Z,2481
2023-04-07T15:36:37.633Z,2250
2023-04-07T15:39:30.845Z,1881
2023-04-07T15:42:11.004Z,1751
2023-04-07T15:44:35.592Z,1717
2023-04-07T15:46:46.666Z,1596.8
2023-04-07T15:48:43.628Z,1749
2023-04-07T15:51:28.977Z,1852
2023-04-07T15:54:00.462Z,1493.7
2023-04-07T15:56:17.811Z,1444.4
2023-04-07T15:58:21.337Z,1422
2023-04-07T16:01:13.000Z,1548.1
2023-04-07T16:03:50.927Z,1569.9
2023-04-07T16:06:14.227Z,1653
2023-04-07T16:08:23.712Z,1656
2023-04-07T16:11:21.412Z,1902
2023-04-07T16:14:05.789Z,2237
2023-04-07T16:16:34.783Z,2103
2023-04-07T16:18:50.403Z,1646
2023-04-07T16:20:52.120Z,1525.7
2023-04-07T16:23:41.794Z,1410.5
2023-04-07T16:26:17.439Z,1363.8
2023-04-07T16:28:39.069Z,1377.2
2023-04-07T16:30:46.864Z,1430.4
2023-04-07T16:33:42.671Z,1397.1
2023-04-07T16:36:24.281Z,1443.2
2023-04-07T16:38:52.165Z,1566.7
2023-04-07T16:41:05.606Z,1354.8
2023-04-07T16:43:05.361Z,1124.4
2023-04-07T16:45:53.512Z,1170.8
2023-04-07T16:48:27.587Z,1212.8
2023-04-07T16:50:47.663Z,1104.3
2023-04-07T16:52:53.697Z,1073.9
2023-04-07T16:55:47.831Z,1034.8
2023-04-07T16:58:27.876Z,961.6
2023-04-07T17:00:53.940Z,892.8
2023-04-07T17:03:06.190Z,894.7
2023-04-07T17:05:04.187Z,718.4
2023-04-07T17:07:50.384Z,579
2023-04-07T17:10:22.697Z,548.9
2023-04-07T17:12:40.928Z,525.6
2023-04-07T17:14:45.066Z,503.5
2023-04-07T17:17:37.623Z,479.8
2023-04-07T17:20:16.014Z,474
2023-04-07T17:22:40.344Z,463.2
2023-04-07T17:24:50.804Z,435.6
2023-04-07T17:26:47.184Z,423.6
2023-04-07T17:29:31.594Z,404.6
2023-04-07T17:32:01.409Z,360.3
2023-04-07T17:34:17.823Z,331
2023-04-07T17:36:20.261Z,308
2023-04-07T17:39:10.620Z,286
2023-04-07T17:41:47.166Z,265.6
2023-04-07T17:44:09.710Z,244.7
2023-04-07T17:46:18.252Z,230
2023-04-07T17:49:14.940Z,205.2
2023-04-07T17:51:57.686Z,175.5
2023-04-07T17:54:26.422Z,156.28
2023-04-07T17:56:41.053Z,138.16
2023-04-07T17:58:42.062Z,116.36
2023-04-07T18:01:30.750Z,96.6
2023-04-07T18:04:06.606Z,74.52
2023-04-07T18:06:26.354Z,58.2
2023-04-07T18:08:33.222Z,46.94
2023-04-07T18:11:27.999Z,33.07
2023-04-07T18:14:08.907Z,21.99
2023-04-07T18:16:35.866Z,12.59
2023-04-07T18:18:48.638Z,9.87
2023-04-07T18:20:47.706Z,7.46
2023-04-07T18:23:34.359Z,4.69
2023-04-07T18:26:07.328Z,3.21
2023-04-07T18:28:26.254Z,2.18
2023-04-07T18:30:31.421Z,1.48
2023-04-07T18:33:24.451Z,0.81
2023-04-07T18:36:03.452Z,0.53
2023-04-07T18:38:28.639Z,0.39
2023-04-07T18:40:39.793Z,0.28
2023-04-07T18:42:36.899Z,0.2
2023-04-07T18:45:22.187Z,0.14
2023-04-07T18:47:53.369Z,0.11
2023-04-07T18:50:10.478Z,0.09
2023-04-07T18:52:13.833Z,0.07
2023-04-07T18:55:05.219Z,0.06
2023-04-07T19:00:05.720Z,0.05
2023-04-07T19:02:15.127Z,0.04
2023-04-07T19:12:40.938Z,0.03
2023-04-07T19:30:14.029Z,0.04
2023-04-07T19:39:47.047Z,0.03
2023-04-07T19:46:42.733Z,0.04
2023-04-07T19:52:17.038Z,0.08
2023-04-07T19:54:43.162Z,0.05
2023-04-07T19:56:55.243Z,0.03
2023-04-07T19:58:53.409Z,0.02
2023-04-07T21:07:57.803Z,0.03
2023-04-07T21:10:24.748Z,0.02
2023-04-07T22:08:33.371Z,0.03
2023-04-07T23:26:49.528Z,0.04
2023-04-07T23:29:07.034Z,0.03
2023-04-07T23:53:40.463Z,0.02
